sensor_id;sensor_type;location;lat;lon;timestamp;temperature;humidity
12115;DHT22;6121;49.810;6.418;2023-01-28T00:00:33;4.40;99.90
12115;DHT22;6121;49.810;6.418;2023-01-28T00:02:59;4.30;99.90
12115;DHT22;6121;49.810;6.418;2023-01-28T00:05:25;4.60;99.90
12115;DHT22;6121;49.810;6.418;2023-01-28T00:07:51;4.60;99.90
12115;DHT22;6121;49.810;6.418;2023-01-28T00:10:17;4.40;99.90
12115;DHT22;6121;49.810;6.418;2023-01-28T00:12:43;4.50;99.90
12115;DHT22;6121;49.810;6.418;2023-01-28T00:15:10;4.60;99.90
12115;DHT22;6121;49.810;6.418;2023-01-28T00:17:39;4.50;99.90
12115;DHT22;6121;49.810;6.418;2023-01-28T00:20:06;4.30;99.90
12115;DHT22;6121;49.810;6.418;2023-01-28T00:22:32;4.20;99.90
12115;DHT22;6121;49.810;6.418;2023-01-28T00:24:58;4.20;99.90
12115;DHT22;6121;49.810;6.418;2023-01-28T00:27:24;4.40;99.90
12115;DHT22;6121;49.810;6.418;2023-01-28T00:29:50;4.40;99.90
12115;DHT22;6121;49.810;6.418;2023-01-28T00:32:16;4.40;99.90
12115;DHT22;6121;49.810;6.418;2023-01-28T00:34:42;4.40;99.90
12115;DHT22;6121;49.810;6.418;2023-01-28T00:37:08;4.30;99.90
12115;DHT22;6121;49.810;6.418;2023-01-28T00:39:34;4.40;99.90
12115;DHT22;6121;49.810;6.418;2023-01-28T00:42:00;4.40;99.90
12115;DHT22;6121;49.810;6.418;2023-01-28T00:44:26;4.20;99.90
12115;DHT22;6121;49.810;6.418;2023-01-28T00:46:52;4.30;99.90
12115;DHT22;6121;49.810;6.418;2023-01-28T00:49:21;4.40;99.90
12115;DHT22;6121;49.810;6.418;2023-01-28T00:51:47;4.40;99.90
12115;DHT22;6121;49.810;6.418;2023-01-28T00:54:15;4.40;99.90
12115;DHT22;6121;49.810;6.418;2023-01-28T00:56:41;4.40;99.90
12115;DHT22;6121;49.810;6.418;2023-01-28T00:59:06;4.30;99.90
12115;DHT22;6121;49.810;6.418;2023-01-28T01:01:33;4.20;99.90
12115;DHT22;6121;49.810;6.418;2023-01-28T01:03:59;4.20;99.90
12115;DHT22;6121;49.810;6.418;2023-01-28T01:06:31;4.30;99.90
12115;DHT22;6121;49.810;6.418;2023-01-28T01:08:58;4.30;99.90
12115;DHT22;6121;49.810;6.418;2023-01-28T01:11:24;4.40;99.90
12115;DHT22;6121;49.810;6.418;2023-01-28T01:13:52;4.30;99.90
12115;DHT22;6121;49.810;6.418;2023-01-28T01:16:23;4.30;99.90
12115;DHT22;6121;49.810;6.418;2023-01-28T01:18:51;4.10;99.90
12115;DHT22;6121;49.810;6.418;2023-01-28T01:21:20;4.30;99.90
12115;DHT22;6121;49.810;6.418;2023-01-28T01:23:46;4.20;99.90
12115;DHT22;6121;49.810;6.418;2023-01-28T01:26:13;4.30;99.90
12115;DHT22;6121;49.810;6.418;2023-01-28T01:28:39;4.30;99.90
12115;DHT22;6121;49.810;6.418;2023-01-28T01:31:16;4.40;99.90
12115;DHT22;6121;49.810;6.418;2023-01-28T01:33:45;4.10;99.90
12115;DHT22;6121;49.810;6.418;2023-01-28T01:36:12;4.20;99.90
12115;DHT22;6121;49.810;6.418;2023-01-28T01:38:38;4.00;99.90
12115;DHT22;6121;49.810;6.418;2023-01-28T01:41:06;4.00;99.90
12115;DHT22;6121;49.810;6.418;2023-01-28T01:44:05;4.10;99.90
12115;DHT22;6121;49.810;6.418;2023-01-28T01:49:23;4.00;99.90
12115;DHT22;6121;49.810;6.418;2023-01-28T01:52:14;4.10;99.90
12115;DHT22;6121;49.810;6.418;2023-01-28T01:54:43;4.10;99.90
12115;DHT22;6121;49.810;6.418;2023-01-28T01:57:14;3.90;99.90
12115;DHT22;6121;49.810;6.418;2023-01-28T01:59:41;4.00;99.90
12115;DHT22;6121;49.810;6.418;2023-01-28T02:02:10;3.90;99.90
12115;DHT22;6121;49.810;6.418;2023-01-28T02:04:39;4.00;99.90
12115;DHT22;6121;49.810;6.418;2023-01-28T02:07:08;4.10;99.90
12115;DHT22;6121;49.810;6.418;2023-01-28T02:09:35;4.00;99.90
12115;DHT22;6121;49.810;6.418;2023-01-28T02:12:13;4.00;99.90
12115;DHT22;6121;49.810;6.418;2023-01-28T02:14:45;4.00;99.90
12115;DHT22;6121;49.810;6.418;2023-01-28T02:17:14;3.90;99.90
12115;DHT22;6121;49.810;6.418;2023-01-28T02:19:52;3.80;99.90
12115;DHT22;6121;49.810;6.418;2023-01-28T02:25:45;4.00;99.90
12115;DHT22;6121;49.810;6.418;2023-01-28T02:33:32;3.90;99.90
12115;DHT22;6121;49.810;6.418;2023-01-28T02:36:14;4.00;99.90
12115;DHT22;6121;49.810;6.418;2023-01-28T02:38:47;4.00;99.90
12115;DHT22;6121;49.810;6.418;2023-01-28T02:41:20;3.90;99.90
12115;DHT22;6121;49.810;6.418;2023-01-28T02:43:48;3.80;99.90
12115;DHT22;6121;49.810;6.418;2023-01-28T02:46:19;3.80;99.90
12115;DHT22;6121;49.810;6.418;2023-01-28T02:54:59;4.00;99.90
12115;DHT22;6121;49.810;6.418;2023-01-28T02:57:49;4.00;99.90
12115;DHT22;6121;49.810;6.418;2023-01-28T03:03:04;3.80;99.90
12115;DHT22;6121;49.810;6.418;2023-01-28T03:05:39;3.90;99.90
12115;DHT22;6121;49.810;6.418;2023-01-28T03:08:06;3.90;99.90
12115;DHT22;6121;49.810;6.418;2023-01-28T03:10:55;3.90;99.90
12115;DHT22;6121;49.810;6.418;2023-01-28T03:13:40;3.80;99.90
12115;DHT22;6121;49.810;6.418;2023-01-28T03:16:26;3.80;99.90
12115;DHT22;6121;49.810;6.418;2023-01-28T03:19:12;3.80;99.90
12115;DHT22;6121;49.810;6.418;2023-01-28T03:21:57;3.90;99.90
12115;DHT22;6121;49.810;6.418;2023-01-28T03:24:46;4.00;99.90
12115;DHT22;6121;49.810;6.418;2023-01-28T03:27:55;4.00;99.90
12115;DHT22;6121;49.810;6.418;2023-01-28T03:31:03;3.90;99.90
12115;DHT22;6121;49.810;6.418;2023-01-28T03:33:54;3.90;99.90
12115;DHT22;6121;49.810;6.418;2023-01-28T03:36:39;3.90;99.90
12115;DHT22;6121;49.810;6.418;2023-01-28T03:39:28;3.90;99.90
12115;DHT22;6121;49.810;6.418;2023-01-28T03:41:59;3.90;99.90
12115;DHT22;6121;49.810;6.418;2023-01-28T03:44:25;3.90;99.90
12115;DHT22;6121;49.810;6.418;2023-01-28T03:47:10;3.80;99.90
12115;DHT22;6121;49.810;6.418;2023-01-28T03:49:44;3.80;99.90
12115;DHT22;6121;49.810;6.418;2023-01-28T03:52:11;3.80;99.90
12115;DHT22;6121;49.810;6.418;2023-01-28T03:54:38;3.80;99.90
12115;DHT22;6121;49.810;6.418;2023-01-28T03:57:04;3.90;99.90
12115;DHT22;6121;49.810;6.418;2023-01-28T03:59:31;3.90;99.90
12115;DHT22;6121;49.810;6.418;2023-01-28T04:01:57;3.90;99.90
12115;DHT22;6121;49.810;6.418;2023-01-28T04:04:24;3.90;99.90
12115;DHT22;6121;49.810;6.418;2023-01-28T04:06:51;3.90;99.90
12115;DHT22;6121;49.810;6.418;2023-01-28T04:09:41;3.90;99.90
12115;DHT22;6121;49.810;6.418;2023-01-28T04:12:24;3.90;99.90
12115;DHT22;6121;49.810;6.418;2023-01-28T04:14:51;3.80;99.90
12115;DHT22;6121;49.810;6.418;2023-01-28T04:17:25;3.70;99.90
12115;DHT22;6121;49.810;6.418;2023-01-28T04:19:51;3.70;99.90
12115;DHT22;6121;49.810;6.418;2023-01-28T04:22:18;3.70;99.90
12115;DHT22;6121;49.810;6.418;2023-01-28T04:24:44;3.60;99.90
12115;DHT22;6121;49.810;6.418;2023-01-28T04:27:10;3.80;99.90
12115;DHT22;6121;49.810;6.418;2023-01-28T04:29:36;3.70;99.90
12115;DHT22;6121;49.810;6.418;2023-01-28T04:32:31;3.70;99.90
12115;DHT22;6121;49.810;6.418;2023-01-28T04:35:04;3.50;99.90
12115;DHT22;6121;49.810;6.418;2023-01-28T04:37:48;3.60;99.90
12115;DHT22;6121;49.810;6.418;2023-01-28T04:40:53;3.70;99.90
12115;DHT22;6121;49.810;6.418;2023-01-28T04:43:28;3.70;99.90
12115;DHT22;6121;49.810;6.418;2023-01-28T04:46:12;3.70;99.90
12115;DHT22;6121;49.810;6.418;2023-01-28T04:48:42;3.60;99.90
12115;DHT22;6121;49.810;6.418;2023-01-28T04:51:29;3.70;99.90
12115;DHT22;6121;49.810;6.418;2023-01-28T04:54:07;3.60;99.90
12115;DHT22;6121;49.810;6.418;2023-01-28T04:56:35;3.60;99.90
12115;DHT22;6121;49.810;6.418;2023-01-28T04:59:02;3.60;99.90
12115;DHT22;6121;49.810;6.418;2023-01-28T05:01:29;3.70;99.90
12115;DHT22;6121;49.810;6.418;2023-01-28T05:03:55;3.90;99.90
12115;DHT22;6121;49.810;6.418;2023-01-28T05:06:24;3.80;99.90
12115;DHT22;6121;49.810;6.418;2023-01-28T05:08:53;3.60;99.90
12115;DHT22;6121;49.810;6.418;2023-01-28T05:11:19;3.70;99.90
12115;DHT22;6121;49.810;6.418;2023-01-28T05:13:49;3.80;99.90
12115;DHT22;6121;49.810;6.418;2023-01-28T05:16:16;3.80;99.90
12115;DHT22;6121;49.810;6.418;2023-01-28T05:18:43;3.80;99.90
12115;DHT22;6121;49.810;6.418;2023-01-28T05:21:14;3.90;99.90
12115;DHT22;6121;49.810;6.418;2023-01-28T05:23:43;3.80;99.90
12115;DHT22;6121;49.810;6.418;2023-01-28T05:26:09;3.70;99.90
12115;DHT22;6121;49.810;6.418;2023-01-28T05:28:35;3.60;99.90
12115;DHT22;6121;49.810;6.418;2023-01-28T05:31:05;3.60;99.90
12115;DHT22;6121;49.810;6.418;2023-01-28T05:33:31;3.70;99.90
12115;DHT22;6121;49.810;6.418;2023-01-28T05:35:57;3.80;99.90
12115;DHT22;6121;49.810;6.418;2023-01-28T05:38:23;3.70;99.90
12115;DHT22;6121;49.810;6.418;2023-01-28T05:40:50;3.70;99.90
12115;DHT22;6121;49.810;6.418;2023-01-28T05:43:16;3.70;99.90
12115;DHT22;6121;49.810;6.418;2023-01-28T05:45:46;3.70;99.90
12115;DHT22;6121;49.810;6.418;2023-01-28T05:48:19;3.70;99.90
12115;DHT22;6121;49.810;6.418;2023-01-28T05:51:01;3.60;99.90
12115;DHT22;6121;49.810;6.418;2023-01-28T05:53:35;3.60;99.90
12115;DHT22;6121;49.810;6.418;2023-01-28T05:56:00;3.80;99.90
12115;DHT22;6121;49.810;6.418;2023-01-28T05:58:35;3.80;99.90
12115;DHT22;6121;49.810;6.418;2023-01-28T06:01:02;3.80;99.90
12115;DHT22;6121;49.810;6.418;2023-01-28T06:03:36;3.90;99.90
12115;DHT22;6121;49.810;6.418;2023-01-28T06:06:04;3.90;99.90
12115;DHT22;6121;49.810;6.418;2023-01-28T06:08:30;3.80;99.90
12115;DHT22;6121;49.810;6.418;2023-01-28T06:10:57;3.90;99.90
12115;DHT22;6121;49.810;6.418;2023-01-28T06:13:24;3.90;99.90
12115;DHT22;6121;49.810;6.418;2023-01-28T06:16:08;3.90;99.90
12115;DHT22;6121;49.810;6.418;2023-01-28T06:18:54;3.70;99.90
12115;DHT22;6121;49.810;6.418;2023-01-28T06:21:20;3.70;99.90
12115;DHT22;6121;49.810;6.418;2023-01-28T06:23:45;3.80;99.90
12115;DHT22;6121;49.810;6.418;2023-01-28T06:26:12;3.90;99.90
12115;DHT22;6121;49.810;6.418;2023-01-28T06:28:41;3.70;99.90
12115;DHT22;6121;49.810;6.418;2023-01-28T06:31:07;3.80;99.90
12115;DHT22;6121;49.810;6.418;2023-01-28T06:33:33;3.80;99.90
12115;DHT22;6121;49.810;6.418;2023-01-28T06:36:04;3.70;99.90
12115;DHT22;6121;49.810;6.418;2023-01-28T06:38:33;3.80;99.90
12115;DHT22;6121;49.810;6.418;2023-01-28T06:40:59;3.70;99.90
12115;DHT22;6121;49.810;6.418;2023-01-28T06:43:25;3.70;99.90
12115;DHT22;6121;49.810;6.418;2023-01-28T06:45:53;3.70;99.90
12115;DHT22;6121;49.810;6.418;2023-01-28T06:48:20;3.60;99.90
12115;DHT22;6121;49.810;6.418;2023-01-28T06:50:47;3.50;99.90
12115;DHT22;6121;49.810;6.418;2023-01-28T06:53:14;3.60;99.90
12115;DHT22;6121;49.810;6.418;2023-01-28T06:55:41;3.70;99.90
12115;DHT22;6121;49.810;6.418;2023-01-28T06:58:07;3.60;99.90
12115;DHT22;6121;49.810;6.418;2023-01-28T07:00:33;3.50;99.90
12115;DHT22;6121;49.810;6.418;2023-01-28T07:02:59;3.70;99.90
12115;DHT22;6121;49.810;6.418;2023-01-28T07:05:26;3.60;99.90
12115;DHT22;6121;49.810;6.418;2023-01-28T07:07:52;3.70;99.90
12115;DHT22;6121;49.810;6.418;2023-01-28T07:10:18;3.70;99.90
12115;DHT22;6121;49.810;6.418;2023-01-28T07:12:44;3.70;99.90
12115;DHT22;6121;49.810;6.418;2023-01-28T07:15:10;3.80;99.90
12115;DHT22;6121;49.810;6.418;2023-01-28T07:17:40;3.70;99.90
12115;DHT22;6121;49.810;6.418;2023-01-28T07:20:07;3.50;99.90
12115;DHT22;6121;49.810;6.418;2023-01-28T07:22:33;3.60;99.90
12115;DHT22;6121;49.810;6.418;2023-01-28T07:24:59;3.60;99.90
12115;DHT22;6121;49.810;6.418;2023-01-28T07:27:27;3.70;99.90
12115;DHT22;6121;49.810;6.418;2023-01-28T07:29:53;3.60;99.90
12115;DHT22;6121;49.810;6.418;2023-01-28T07:32:19;3.50;99.90
12115;DHT22;6121;49.810;6.418;2023-01-28T07:34:45;3.50;99.90
12115;DHT22;6121;49.810;6.418;2023-01-28T07:37:11;3.40;99.90
12115;DHT22;6121;49.810;6.418;2023-01-28T07:39:37;3.50;99.90
12115;DHT22;6121;49.810;6.418;2023-01-28T07:42:03;3.60;99.90
12115;DHT22;6121;49.810;6.418;2023-01-28T07:44:31;3.60;99.90
12115;DHT22;6121;49.810;6.418;2023-01-28T07:46:57;3.60;99.90
12115;DHT22;6121;49.810;6.418;2023-01-28T07:49:23;3.60;99.90
12115;DHT22;6121;49.810;6.418;2023-01-28T07:51:49;3.70;99.90
12115;DHT22;6121;49.810;6.418;2023-01-28T07:54:16;3.70;99.90
12115;DHT22;6121;49.810;6.418;2023-01-28T07:56:42;3.70;99.90
12115;DHT22;6121;49.810;6.418;2023-01-28T07:59:07;3.70;99.90
12115;DHT22;6121;49.810;6.418;2023-01-28T08:01:33;3.70;99.90
12115;DHT22;6121;49.810;6.418;2023-01-28T08:03:59;3.70;99.90
12115;DHT22;6121;49.810;6.418;2023-01-28T08:06:27;3.70;99.90
12115;DHT22;6121;49.810;6.418;2023-01-28T08:08:54;3.60;99.90
12115;DHT22;6121;49.810;6.418;2023-01-28T08:11:19;3.70;99.90
12115;DHT22;6121;49.810;6.418;2023-01-28T08:13:46;3.60;99.90
12115;DHT22;6121;49.810;6.418;2023-01-28T08:16:14;3.50;99.90
12115;DHT22;6121;49.810;6.418;2023-01-28T08:18:42;3.60;99.90
12115;DHT22;6121;49.810;6.418;2023-01-28T08:21:08;3.70;99.90
12115;DHT22;6121;49.810;6.418;2023-01-28T08:23:34;3.80;99.90
12115;DHT22;6121;49.810;6.418;2023-01-28T08:26:00;3.70;99.90
12115;DHT22;6121;49.810;6.418;2023-01-28T08:28:26;3.70;99.90
12115;DHT22;6121;49.810;6.418;2023-01-28T08:30:52;3.90;99.90
12115;DHT22;6121;49.810;6.418;2023-01-28T08:33:18;3.80;99.90
12115;DHT22;6121;49.810;6.418;2023-01-28T08:35:45;3.70;99.90
12115;DHT22;6121;49.810;6.418;2023-01-28T08:38:12;3.80;99.90
12115;DHT22;6121;49.810;6.418;2023-01-28T08:40:39;3.80;99.90
12115;DHT22;6121;49.810;6.418;2023-01-28T08:43:06;3.90;99.90
12115;DHT22;6121;49.810;6.418;2023-01-28T08:45:31;3.90;99.90
12115;DHT22;6121;49.810;6.418;2023-01-28T08:48:11;3.80;99.90
12115;DHT22;6121;49.810;6.418;2023-01-28T08:50:38;3.80;99.90
12115;DHT22;6121;49.810;6.418;2023-01-28T08:53:17;3.90;99.90
12115;DHT22;6121;49.810;6.418;2023-01-28T08:55:43;3.90;99.90
12115;DHT22;6121;49.810;6.418;2023-01-28T08:58:15;3.70;99.90
12115;DHT22;6121;49.810;6.418;2023-01-28T09:00:45;3.80;99.90
12115;DHT22;6121;49.810;6.418;2023-01-28T09:03:11;3.80;99.90
12115;DHT22;6121;49.810;6.418;2023-01-28T09:05:37;3.90;99.90
12115;DHT22;6121;49.810;6.418;2023-01-28T09:08:09;3.80;99.90
12115;DHT22;6121;49.810;6.418;2023-01-28T09:10:36;3.80;99.90
12115;DHT22;6121;49.810;6.418;2023-01-28T09:13:09;3.80;99.90
12115;DHT22;6121;49.810;6.418;2023-01-28T09:15:36;3.90;99.90
12115;DHT22;6121;49.810;6.418;2023-01-28T09:18:02;3.90;99.90
12115;DHT22;6121;49.810;6.418;2023-01-28T09:20:29;3.90;99.90
12115;DHT22;6121;49.810;6.418;2023-01-28T09:22:58;3.90;99.90
12115;DHT22;6121;49.810;6.418;2023-01-28T09:25:23;4.00;99.90
12115;DHT22;6121;49.810;6.418;2023-01-28T09:27:49;4.00;99.90
12115;DHT22;6121;49.810;6.418;2023-01-28T09:30:15;4.00;99.90
12115;DHT22;6121;49.810;6.418;2023-01-28T09:32:41;4.10;99.90
12115;DHT22;6121;49.810;6.418;2023-01-28T09:35:08;4.10;99.90
12115;DHT22;6121;49.810;6.418;2023-01-28T09:37:34;3.90;99.90
12115;DHT22;6121;49.810;6.418;2023-01-28T09:40:01;4.00;99.90
12115;DHT22;6121;49.810;6.418;2023-01-28T09:45:30;4.10;99.90
12115;DHT22;6121;49.810;6.418;2023-01-28T09:48:00;4.20;99.90
12115;DHT22;6121;49.810;6.418;2023-01-28T09:50:41;4.20;99.90
12115;DHT22;6121;49.810;6.418;2023-01-28T09:53:47;4.20;99.90
12115;DHT22;6121;49.810;6.418;2023-01-28T09:56:39;4.10;99.90
12115;DHT22;6121;49.810;6.418;2023-01-28T09:59:20;4.10;99.90
12115;DHT22;6121;49.810;6.418;2023-01-28T10:01:59;4.00;99.90
12115;DHT22;6121;49.810;6.418;2023-01-28T10:04:55;4.10;99.90
12115;DHT22;6121;49.810;6.418;2023-01-28T10:07:39;4.20;99.90
12115;DHT22;6121;49.810;6.418;2023-01-28T10:10:33;4.10;99.90
12115;DHT22;6121;49.810;6.418;2023-01-28T10:13:31;4.30;99.90
12115;DHT22;6121;49.810;6.418;2023-01-28T10:16:04;4.20;99.90
12115;DHT22;6121;49.810;6.418;2023-01-28T10:19:09;4.10;99.90
12115;DHT22;6121;49.810;6.418;2023-01-28T10:22:02;4.20;99.90
12115;DHT22;6121;49.810;6.418;2023-01-28T10:24:40;4.20;99.90
12115;DHT22;6121;49.810;6.418;2023-01-28T10:27:14;4.20;99.90
12115;DHT22;6121;49.810;6.418;2023-01-28T10:29:41;4.10;99.90
12115;DHT22;6121;49.810;6.418;2023-01-28T10:34:54;4.30;99.90
12115;DHT22;6121;49.810;6.418;2023-01-28T10:37:20;4.40;99.90
12115;DHT22;6121;49.810;6.418;2023-01-28T10:39:47;4.50;99.90
12115;DHT22;6121;49.810;6.418;2023-01-28T10:42:27;4.50;99.90
12115;DHT22;6121;49.810;6.418;2023-01-28T10:45:01;4.50;99.90
12115;DHT22;6121;49.810;6.418;2023-01-28T10:48:00;4.30;99.90
12115;DHT22;6121;49.810;6.418;2023-01-28T10:50:30;4.20;99.90
12115;DHT22;6121;49.810;6.418;2023-01-28T10:52:58;4.30;99.90
12115;DHT22;6121;49.810;6.418;2023-01-28T10:55:44;4.30;99.90
12115;DHT22;6121;49.810;6.418;2023-01-28T10:58:21;4.30;99.90
12115;DHT22;6121;49.810;6.418;2023-01-28T11:01:04;4.20;99.90
12115;DHT22;6121;49.810;6.418;2023-01-28T11:03:31;4.10;99.90
12115;DHT22;6121;49.810;6.418;2023-01-28T11:06:00;4.20;99.90
12115;DHT22;6121;49.810;6.418;2023-01-28T11:08:28;4.30;99.90
12115;DHT22;6121;49.810;6.418;2023-01-28T11:10:55;4.40;99.90
12115;DHT22;6121;49.810;6.418;2023-01-28T11:13:24;4.40;99.90
12115;DHT22;6121;49.810;6.418;2023-01-28T11:18:32;4.20;99.90
12115;DHT22;6121;49.810;6.418;2023-01-28T11:21:14;4.20;99.90
12115;DHT22;6121;49.810;6.418;2023-01-28T11:26:23;4.40;99.90
12115;DHT22;6121;49.810;6.418;2023-01-28T11:28:51;4.20;99.90
12115;DHT22;6121;49.810;6.418;2023-01-28T11:31:19;4.10;99.90
12115;DHT22;6121;49.810;6.418;2023-01-28T11:36:29;4.40;99.90
12115;DHT22;6121;49.810;6.418;2023-01-28T11:38:56;4.20;99.90
12115;DHT22;6121;49.810;6.418;2023-01-28T11:41:37;4.20;99.90
12115;DHT22;6121;49.810;6.418;2023-01-28T11:46:57;4.20;99.90
12115;DHT22;6121;49.810;6.418;2023-01-28T11:49:41;4.20;99.90
12115;DHT22;6121;49.810;6.418;2023-01-28T12:12:01;4.70;99.90
12115;DHT22;6121;49.810;6.418;2023-01-28T12:26:05;4.50;99.90
12115;DHT22;6121;49.810;6.418;2023-01-28T12:29:05;4.40;99.90
12115;DHT22;6121;49.810;6.418;2023-01-28T12:31:45;4.50;99.90
12115;DHT22;6121;49.810;6.418;2023-01-28T12:35:04;4.60;99.90
12115;DHT22;6121;49.810;6.418;2023-01-28T12:43:07;4.70;99.90
12115;DHT22;6121;49.810;6.418;2023-01-28T12:45:40;4.80;99.90
12115;DHT22;6121;49.810;6.418;2023-01-28T12:48:39;5.00;99.90
12115;DHT22;6121;49.810;6.418;2023-01-28T12:51:27;4.80;99.90
12115;DHT22;6121;49.810;6.418;2023-01-28T12:54:18;4.90;99.90
12115;DHT22;6121;49.810;6.418;2023-01-28T12:56:55;4.80;99.90
12115;DHT22;6121;49.810;6.418;2023-01-28T12:59:47;4.60;99.90
12115;DHT22;6121;49.810;6.418;2023-01-28T13:02:16;4.60;99.90
12115;DHT22;6121;49.810;6.418;2023-01-28T13:10:58;4.60;99.90
12115;DHT22;6121;49.810;6.418;2023-01-28T13:13:35;4.20;99.90
12115;DHT22;6121;49.810;6.418;2023-01-28T13:16:02;4.40;99.90
12115;DHT22;6121;49.810;6.418;2023-01-28T13:18:42;4.40;99.90
12115;DHT22;6121;49.810;6.418;2023-01-28T13:23:44;4.70;99.90
12115;DHT22;6121;49.810;6.418;2023-01-28T13:26:36;4.60;99.90
12115;DHT22;6121;49.810;6.418;2023-01-28T13:29:30;4.50;99.90
12115;DHT22;6121;49.810;6.418;2023-01-28T13:32:01;4.60;99.90
12115;DHT22;6121;49.810;6.418;2023-01-28T13:34:58;4.70;99.90
12115;DHT22;6121;49.810;6.418;2023-01-28T13:37:38;4.60;99.90
12115;DHT22;6121;49.810;6.418;2023-01-28T13:42:38;4.40;99.90
12115;DHT22;6121;49.810;6.418;2023-01-28T13:45:20;4.50;99.90
12115;DHT22;6121;49.810;6.418;2023-01-28T13:47:49;4.40;99.90
12115;DHT22;6121;49.810;6.418;2023-01-28T13:50:24;4.30;99.90
12115;DHT22;6121;49.810;6.418;2023-01-28T13:52:57;4.30;99.90
12115;DHT22;6121;49.810;6.418;2023-01-28T13:55:28;4.20;99.90
12115;DHT22;6121;49.810;6.418;2023-01-28T13:58:08;4.30;99.90
12115;DHT22;6121;49.810;6.418;2023-01-28T14:03:52;4.20;99.90
12115;DHT22;6121;49.810;6.418;2023-01-28T14:15:02;4.20;99.90
12115;DHT22;6121;49.810;6.418;2023-01-28T14:17:50;4.10;99.90
12115;DHT22;6121;49.810;6.418;2023-01-28T14:20:28;4.20;99.90
12115;DHT22;6121;49.810;6.418;2023-01-28T14:23:02;4.20;99.90
12115;DHT22;6121;49.810;6.418;2023-01-28T14:25:39;4.20;99.90
12115;DHT22;6121;49.810;6.418;2023-01-28T14:28:15;4.20;99.90
12115;DHT22;6121;49.810;6.418;2023-01-28T14:30:53;4.20;99.90
12115;DHT22;6121;49.810;6.418;2023-01-28T14:33:21;4.30;99.90
12115;DHT22;6121;49.810;6.418;2023-01-28T14:35:49;4.20;99.90
12115;DHT22;6121;49.810;6.418;2023-01-28T14:38:19;4.10;99.90
12115;DHT22;6121;49.810;6.418;2023-01-28T14:40:50;4.00;99.90
12115;DHT22;6121;49.810;6.418;2023-01-28T14:43:23;4.10;99.90
12115;DHT22;6121;49.810;6.418;2023-01-28T14:46:03;4.00;99.90
12115;DHT22;6121;49.810;6.418;2023-01-28T14:48:56;3.90;99.90
12115;DHT22;6121;49.810;6.418;2023-01-28T14:51:44;3.90;99.90
12115;DHT22;6121;49.810;6.418;2023-01-28T14:56:59;4.00;99.90
12115;DHT22;6121;49.810;6.418;2023-01-28T14:59:32;3.90;99.90
12115;DHT22;6121;49.810;6.418;2023-01-28T15:02:01;3.80;99.90
12115;DHT22;6121;49.810;6.418;2023-01-28T15:04:29;3.80;99.90
12115;DHT22;6121;49.810;6.418;2023-01-28T15:07:01;3.70;99.90
12115;DHT22;6121;49.810;6.418;2023-01-28T15:09:37;3.80;99.90
12115;DHT22;6121;49.810;6.418;2023-01-28T15:12:05;3.80;99.90
12115;DHT22;6121;49.810;6.418;2023-01-28T15:14:32;3.70;99.90
12115;DHT22;6121;49.810;6.418;2023-01-28T15:16:59;3.60;99.90
12115;DHT22;6121;49.810;6.418;2023-01-28T15:19:31;3.50;99.90
12115;DHT22;6121;49.810;6.418;2023-01-28T15:22:00;3.60;99.90
12115;DHT22;6121;49.810;6.418;2023-01-28T15:24:27;3.70;99.90
12115;DHT22;6121;49.810;6.418;2023-01-28T15:26:53;3.80;99.90
12115;DHT22;6121;49.810;6.418;2023-01-28T15:29:24;3.60;99.90
12115;DHT22;6121;49.810;6.418;2023-01-28T15:31:50;3.70;99.90
12115;DHT22;6121;49.810;6.418;2023-01-28T15:34:18;3.80;99.90
12115;DHT22;6121;49.810;6.418;2023-01-28T15:36:47;3.50;99.90
12115;DHT22;6121;49.810;6.418;2023-01-28T15:39:19;3.50;99.90
12115;DHT22;6121;49.810;6.418;2023-01-28T15:42:00;3.60;99.90
12115;DHT22;6121;49.810;6.418;2023-01-28T15:44:36;3.60;99.90
12115;DHT22;6121;49.810;6.418;2023-01-28T15:47:27;3.60;99.90
12115;DHT22;6121;49.810;6.418;2023-01-28T15:49:53;3.50;99.90
12115;DHT22;6121;49.810;6.418;2023-01-28T15:52:20;3.50;99.90
12115;DHT22;6121;49.810;6.418;2023-01-28T15:54:53;3.40;99.90
12115;DHT22;6121;49.810;6.418;2023-01-28T15:57:31;3.30;99.90
12115;DHT22;6121;49.810;6.418;2023-01-28T16:00:08;3.20;99.90
12115;DHT22;6121;49.810;6.418;2023-01-28T16:02:46;3.30;99.90
12115;DHT22;6121;49.810;6.418;2023-01-28T16:05:36;3.40;99.90
12115;DHT22;6121;49.810;6.418;2023-01-28T16:08:30;3.30;99.90
12115;DHT22;6121;49.810;6.418;2023-01-28T16:10:58;3.30;99.90
12115;DHT22;6121;49.810;6.418;2023-01-28T16:13:28;3.40;99.90
12115;DHT22;6121;49.810;6.418;2023-01-28T16:15:56;3.50;99.90
12115;DHT22;6121;49.810;6.418;2023-01-28T16:20:48;3.40;99.90
12115;DHT22;6121;49.810;6.418;2023-01-28T16:23:24;3.30;99.90
12115;DHT22;6121;49.810;6.418;2023-01-28T16:26:03;3.20;99.90
12115;DHT22;6121;49.810;6.418;2023-01-28T16:28:29;3.10;99.90
12115;DHT22;6121;49.810;6.418;2023-01-28T16:30:57;3.10;99.90
12115;DHT22;6121;49.810;6.418;2023-01-28T16:33:24;3.20;99.90
12115;DHT22;6121;49.810;6.418;2023-01-28T16:35:50;3.30;99.90
12115;DHT22;6121;49.810;6.418;2023-01-28T16:38:17;3.20;99.90
12115;DHT22;6121;49.810;6.418;2023-01-28T16:40:46;3.20;99.90
12115;DHT22;6121;49.810;6.418;2023-01-28T16:43:14;2.90;99.90
12115;DHT22;6121;49.810;6.418;2023-01-28T16:45:42;2.90;99.90
12115;DHT22;6121;49.810;6.418;2023-01-28T16:48:08;2.80;99.90
12115;DHT22;6121;49.810;6.418;2023-01-28T16:50:38;2.80;99.90
12115;DHT22;6121;49.810;6.418;2023-01-28T16:53:20;2.90;99.90
12115;DHT22;6121;49.810;6.418;2023-01-28T16:55:51;2.90;99.90
12115;DHT22;6121;49.810;6.418;2023-01-28T16:58:23;3.00;99.90
12115;DHT22;6121;49.810;6.418;2023-01-28T17:00:50;2.90;99.90
12115;DHT22;6121;49.810;6.418;2023-01-28T17:03:15;2.70;99.90
12115;DHT22;6121;49.810;6.418;2023-01-28T17:05:41;2.70;99.90
12115;DHT22;6121;49.810;6.418;2023-01-28T17:08:07;2.70;99.90
12115;DHT22;6121;49.810;6.418;2023-01-28T17:10:33;2.80;99.90
12115;DHT22;6121;49.810;6.418;2023-01-28T17:13:00;2.90;99.90
12115;DHT22;6121;49.810;6.418;2023-01-28T17:15:25;2.80;99.90
12115;DHT22;6121;49.810;6.418;2023-01-28T17:17:51;2.70;99.90
12115;DHT22;6121;49.810;6.418;2023-01-28T17:20:18;2.60;99.90
12115;DHT22;6121;49.810;6.418;2023-01-28T17:22:44;2.40;99.90
12115;DHT22;6121;49.810;6.418;2023-01-28T17:25:10;2.60;99.90
12115;DHT22;6121;49.810;6.418;2023-01-28T17:27:36;2.50;99.90
12115;DHT22;6121;49.810;6.418;2023-01-28T17:30:03;2.50;99.90
12115;DHT22;6121;49.810;6.418;2023-01-28T17:32:29;2.40;99.90
12115;DHT22;6121;49.810;6.418;2023-01-28T17:34:55;2.50;99.90
12115;DHT22;6121;49.810;6.418;2023-01-28T17:37:21;2.60;99.90
12115;DHT22;6121;49.810;6.418;2023-01-28T17:39:47;2.70;99.90
12115;DHT22;6121;49.810;6.418;2023-01-28T17:42:12;2.40;99.90
12115;DHT22;6121;49.810;6.418;2023-01-28T17:44:39;2.40;99.90
12115;DHT22;6121;49.810;6.418;2023-01-28T17:47:05;2.30;99.90
12115;DHT22;6121;49.810;6.418;2023-01-28T17:49:31;2.20;99.90
12115;DHT22;6121;49.810;6.418;2023-01-28T17:51:58;2.20;99.90
12115;DHT22;6121;49.810;6.418;2023-01-28T17:54:24;2.30;99.90
12115;DHT22;6121;49.810;6.418;2023-01-28T17:56:50;2.40;99.90
12115;DHT22;6121;49.810;6.418;2023-01-28T17:59:16;2.20;99.90
12115;DHT22;6121;49.810;6.418;2023-01-28T18:01:43;2.30;99.90
12115;DHT22;6121;49.810;6.418;2023-01-28T18:04:09;2.40;99.90
12115;DHT22;6121;49.810;6.418;2023-01-28T18:06:35;2.50;99.90
12115;DHT22;6121;49.810;6.418;2023-01-28T18:09:03;2.60;99.90
12115;DHT22;6121;49.810;6.418;2023-01-28T18:11:29;2.70;99.90
12115;DHT22;6121;49.810;6.418;2023-01-28T18:13:56;2.50;99.90